Latest Coastal Weather Observations for Learmonth

IDW60701

Issued at 9:43 pm WST Monday 4 May 2026 (issued every 10 minutes, with the page automatically refreshed every 10 minutes)

About coastal observations | Map of coastal stations | Coastal observations for WA | Marine services | Other Formats
Station Details ID: 005007 Name: LEARMONTH AIRPORT Lat: -22.24 Lon: 114.10 Height: 5.0 m
Data from the previous 72 hours. | See also: Recent months at Learmonth
Date/Time
WST
Wind Sea
Height
m
Swell Vis
km
Cloud Weather Temp
°C
Press
MSL
hPa
Rain since
9am
mm
Dir  Spd
kts
Gust
kts
Height
m
Period
s
Dir
04/09:30pm SSW 6 7 - - - - 10 Clear - 21.0 1016.3 0.0
04/09:00pm NW 5 8 - - - - 10 - - 23.1 1016.2 0.0
04/08:30pm N 5 6 - - - - 10 Mostly clear - 24.0 1016.1 0.0
04/08:00pm NW 4 4 - - - - 10 Cloudy - 24.7 1016.1 0.0
04/07:30pm NNW 4 5 - - - - 10 Cloudy - 25.0 1016.1 0.0
04/07:00pm N 5 6 - - - - 10 Cloudy - 25.8 1015.9 0.0
04/06:30pm NNE 6 8 - - - - 10 Cloudy - 26.1 1015.7 0.0
04/06:00pm N 8 9 - - - - 10 Cloudy - 26.5 1015.4 0.0
04/05:30pm NNE 9 11 - - - - 10 Cloudy - 27.1 1015.2 0.0
04/05:00pm N 10 12 - - - - 10 Cloudy - 27.5 1015.1 0.0
04/04:30pm N 10 13 - - - - 10 Cloudy - 27.8 1015.2 0.0
04/04:00pm N 11 14 - - - - 10 Cloudy - 27.9 1015.2 0.0
04/03:30pm N 12 15 - - - - 10 Partly cloudy - 27.8 1015.1 0.0
04/03:00pm N 13 16 - - - - 10 - - 29.1 1015.2 0.0
04/02:30pm N 11 14 - - - - 10 - - 29.1 1015.2 0.0
04/02:00pm N 11 15 - - - - 10 - - 28.8 1015.6 0.0
04/01:30pm NNE 11 15 - - - - 10 - - 28.5 1015.8 0.0
04/01:00pm NNE 13 15 - - - - 10 - - 29.3 1016.1 0.0
04/12:30pm NNE 12 16 - - - - 10 - - 29.2 1016.6 0.0
04/12:00pm NNE 13 17 - - - - 10 Partly cloudy - 29.0 1017.3 0.0
04/11:30am NE 14 16 - - - - 10 Cloudy - 28.0 1017.8 0.0
04/11:00am NE 13 15 - - - - 10 Partly cloudy - 27.7 1018.1 0.0
04/10:30am NE 12 16 - - - - 10 Mostly clear - 28.2 1018.5 0.0
04/10:00am ENE 11 15 - - - - 10 Partly cloudy - 28.5 1018.4 0.0
04/09:30am ENE 9 12 - - - - 10 Partly cloudy - 28.0 1018.4 0.0
04/09:00am ENE 8 10 - - - - 10 - - 27.0 1018.2 0.0
04/08:30am ESE 6 12 - - - - - Mostly clear - 25.6 1017.6 0.0
04/08:00am WSW 1 4 - - - - - Mostly clear - 23.6 1017.3 0.0
04/07:30am CALM 0 3 - - - - - Cloudy - 22.4 1017.2 0.0
04/07:00am WSW 4 5 - - - - 10 Cloudy - 20.5 1016.9 0.0
04/06:30am SW 4 5 - - - - 10 Partly cloudy - 19.5 1016.4 0.0
04/06:00am WSW 4 5 - - - - 10 - - 19.5 1016.2 0.0
04/05:30am WSW 4 5 - - - - 10 Mostly clear - 20.1 1015.9 0.0
04/05:00am WSW 5 6 - - - - 10 - - 20.6 1015.9 0.0
04/04:30am WSW 2 3 - - - - 10 - - 20.5 1015.9 0.0
04/04:00am WSW 3 4 - - - - 10 - - 21.1 1015.7 0.0
04/03:30am WSW 3 5 - - - - 10 - - 21.3 1015.7 0.0
04/03:00am WSW 5 5 - - - - 10 - - 21.2 1015.9 0.0
04/02:30am WSW 5 6 - - - - 10 - - 20.8 1015.7 0.0
04/02:00am WSW 5 7 - - - - 10 - - 21.1 1015.7 0.0
04/01:30am WSW 5 6 - - - - 10 - - 21.7 1015.7 0.0
04/01:00am WSW 4 5 - - - - 10 - - 21.4 1016.0 0.0
04/12:30am SSW 3 4 - - - - 10 - - 20.9 1016.1 0.0
04/12:00am SSW 6 7 - - - - 10 - - 20.7 1016.1 0.0
 
Date/Time
WST
Wind Sea
Height
m
Swell Vis
km
Cloud Weather Temp
°C
Press
MSL
hPa
Rain since
9am
mm
Dir  Spd
kts
Gust
kts
Height
m
Period
s
Dir
03/11:30pm SW 4 5 - - - - 10 - - 21.3 1016.3 0.0
03/11:00pm SW 7 8 - - - - 10 - - 21.3 1016.4 0.0
03/10:30pm SW 7 8 - - - - 10 - - 21.8 1016.4 0.0
03/10:00pm SSW 7 8 - - - - 10 - - 22.1 1016.3 0.0
03/09:30pm WSW 4 5 - - - - 10 - - 22.5 1015.9 0.0
03/09:00pm NNW 5 6 - - - - 10 - - 23.5 1015.9 0.0
03/08:30pm N 6 7 - - - - 10 - - 24.0 1015.7 0.0
03/08:00pm N 7 8 - - - - 10 - - 24.9 1015.4 0.0
03/07:30pm N 6 7 - - - - 10 - - 25.3 1015.1 0.0
03/07:00pm N 8 9 - - - - 10 - - 25.8 1014.7 0.0
03/06:30pm N 8 11 - - - - 10 - - 26.0 1014.5 0.0
03/06:00pm NNE 9 10 - - - - 10 - - 26.3 1014.1 0.0
03/05:30pm NNE 9 11 - - - - 10 - - 26.9 1013.9 0.0
03/05:00pm NNE 9 13 - - - - 10 - - 27.5 1013.6 0.0
03/04:30pm N 11 14 - - - - 10 - - 28.0 1013.5 0.0
03/04:00pm NNE 11 15 - - - - 10 - - 28.5 1013.3 0.0
03/03:30pm NNE 13 16 - - - - 10 - - 28.5 1013.2 0.0
03/03:00pm NNE 15 17 - - - - 10 - - 28.8 1013.4 0.0
03/02:30pm NNE 16 19 - - - - 10 - - 28.7 1013.4 0.0
03/02:00pm NNE 19 22 - - - - 10 - - 29.2 1013.5 0.0
03/01:30pm NNE 18 23 - - - - 10 - - 29.3 1013.7 0.0
03/01:00pm NNE 19 23 - - - - 10 - - 29.6 1014.1 0.0
03/12:30pm NE 19 23 - - - - 10 - - 28.9 1014.3 0.0
03/12:00pm NE 17 21 - - - - 10 - - 29.2 1014.5 0.0
03/11:53am NE 12 20 - - - - 10 - - 29.0 1014.6 0.0
03/11:30am ENE 7 10 - - - - 10 - - 28.3 1015.0 0.0
03/11:00am ENE 7 10 - - - - 10 - - 27.7 1015.3 0.0
03/10:30am ENE 7 9 - - - - 10 - - 26.9 1015.5 0.0
03/10:00am ENE 6 9 - - - - 10 - - 26.5 1015.6 0.0
03/09:30am E 7 9 - - - - 10 - - 26.0 1015.7 0.0
03/09:00am SE 4 5 - - - - 10 - - 25.5 1015.5 0.0
03/08:30am S 4 5 - - - - 10 Mostly clear - 23.6 1015.3 0.0
03/08:00am SW 5 6 - - - - 10 - - 21.9 1015.2 0.0
03/07:30am SW 6 7 - - - - 10 - - 19.8 1014.8 0.0
03/07:00am SW 7 8 - - - - 10 - - 16.7 1014.5 0.0
03/06:30am SW 7 8 - - - - 10 - - 16.7 1014.2 0.0
03/06:00am WSW 7 8 - - - - 10 - - 16.8 1014.0 0.0
03/05:30am SW 6 7 - - - - 10 - - 17.0 1013.7 0.0
03/05:00am SW 6 6 - - - - 10 - - 17.8 1013.5 0.0
03/04:30am WSW 5 6 - - - - 10 - - 18.3 1013.3 0.0
03/04:00am SSW 5 6 - - - - 10 - - 19.3 1013.3 0.0
03/03:30am WSW 5 6 - - - - 10 - - 19.0 1013.3 0.0
03/03:00am SSW 5 5 - - - - 10 - - 19.0 1013.3 0.0
03/02:30am SSW 6 7 - - - - 10 Mostly clear - 18.9 1013.3 0.0
03/02:00am SSW 6 9 - - - - 10 Mostly clear - 20.0 1013.3 0.0
03/01:30am SW 7 9 - - - - 10 - - 18.5 1013.3 0.0
03/01:00am SW 7 9 - - - - 10 - - 19.4 1013.3 0.0
03/12:30am SW 9 11 - - - - 10 - - 19.8 1013.3 0.0
03/12:00am SW 9 11 - - - - 10 - - 19.8 1013.4 0.0
 
Date/Time
WST
Wind Sea
Height
m
Swell Vis
km
Cloud Weather Temp
°C
Press
MSL
hPa
Rain since
9am
mm
Dir  Spd
kts
Gust
kts
Height
m
Period
s
Dir
02/11:30pm SSW 10 11 - - - - 10 - - 19.8 1013.5 0.0
02/11:00pm SW 9 10 - - - - 10 - - 19.6 1013.6 0.0
02/10:30pm SW 7 8 - - - - 10 - - 19.1 1013.7 0.0
02/10:00pm SSW 7 8 - - - - 10 - - 19.8 1013.7 0.0
02/09:30pm S 8 9 - - - - 10 - - 20.3 1013.7 0.0
02/09:00pm SSW 8 10 - - - - 10 - - 21.6 1013.6 0.0
02/08:40pm SSW 9 10 - - - - 10 - - 22.0 1013.2 0.0
02/08:30pm SSW 9 12 - - - - 6 - - 22.5 1013.1 0.0
02/08:19pm SSW 10 11 - - - - 6 - - 22.9 1012.9 0.0
02/08:00pm SSW 9 11 - - - - 10 - - 23.1 1012.6 0.0
02/07:30pm SW 9 10 - - - - 10 - - 23.5 1012.2 0.0
02/07:00pm SW 8 9 - - - - 10 - - 23.3 1011.8 0.0
02/06:30pm SSW 8 9 - - - - 10 - - 24.9 1011.6 0.0
02/06:00pm SSW 8 11 - - - - 10 - - 27.5 1011.2 0.0
02/05:30pm S 9 12 - - - - 10 - - 29.6 1011.0 0.0
02/05:00pm S 9 11 - - - - 10 - - 30.7 1010.9 0.0
02/04:30pm SSE 9 13 - - - - 10 - - 31.1 1010.8 0.0
02/04:00pm SE 10 14 - - - - 10 - - 31.4 1011.0 0.0
02/03:30pm SSE 9 13 - - - - 10 - - 31.1 1011.4 0.0
02/03:00pm SSE 10 15 - - - - 10 - - 31.1 1011.6 0.0
02/02:30pm SSE 10 15 - - - - 10 - - 30.5 1011.8 0.0
02/02:00pm SE 9 13 - - - - 10 - - 30.1 1012.2 0.0
02/01:30pm SSE 11 15 - - - - 10 - - 29.8 1012.6 0.0
02/01:00pm SE 11 16 - - - - 10 - - 30.0 1013.0 0.0
02/12:30pm SE 12 17 - - - - 10 - - 29.3 1013.4 0.0
02/12:00pm SE 14 18 - - - - 10 Mostly clear - 28.3 1013.9 0.0
02/11:30am SE 15 20 - - - - 10 - - 27.9 1014.3 0.0
02/11:00am SSE 15 20 - - - - 10 - - 27.2 1014.6 0.0
02/10:30am SE 15 21 - - - - 10 - - 26.4 1015.2 0.0
02/10:00am SSE 15 19 - - - - 10 - - 25.7 1015.2 0.0
02/09:30am SSE 13 17 - - - - 10 - - 24.7 1015.3 0.0
02/09:00am SSE 13 18 - - - - 10 - - 24.2 1015.4 0.0
02/08:30am S 11 15 - - - - 10 - - 22.2 1015.5 0.0
02/08:00am SSW 8 10 - - - - - - - 19.6 1015.2 0.0
02/07:30am SW 8 9 - - - - 10 - - 18.5 1015.0 0.0
02/07:00am SW 8 10 - - - - 10 - - 18.0 1014.6 0.0
02/06:30am SW 8 9 - - - - 10 - - 18.0 1014.3 0.0
02/06:00am SW 9 11 - - - - 10 Cloudy - 17.6 1014.0 0.0
02/05:30am SW 8 9 - - - - 10 - - 17.5 1013.9 0.0
02/05:00am SW 9 9 - - - - 10 - - 17.7 1014.1 0.0
02/04:30am SSW 7 9 - - - - 10 - - 17.5 1013.8 0.0
02/04:00am SW 9 11 - - - - 10 - - 18.4 1013.9 0.0
02/03:30am SW 8 10 - - - - 10 - - 18.8 1013.6 0.0
02/03:00am SSW 9 13 - - - - 10 - - 19.6 1013.8 0.0
02/02:30am SSW 8 10 - - - - 10 - - 18.7 1013.7 0.0
02/02:00am SW 8 10 - - - - 10 - - 18.0 1014.2 0.0
02/01:30am SW 8 9 - - - - 10 - - 18.4 1014.4 0.0
02/01:00am SW 9 11 - - - - 10 - - 19.0 1014.3 0.0
02/12:30am SSW 8 10 - - - - 10 - - 19.6 1014.3 0.0
02/12:00am SSW 8 11 - - - - 10 - - 21.0 1014.7 0.0
 
Date/Time
WST
Wind Sea
Height
m
Swell Vis
km
Cloud Weather Temp
°C
Press
MSL
hPa
Rain since
9am
mm
Dir  Spd
kts
Gust
kts
Height
m
Period
s
Dir
01/11:30pm S 10 13 - - - - 10 - - 22.0 1014.7 0.0
01/11:00pm SSW 11 15 - - - - 10 - - 22.5 1014.9 0.0
01/10:30pm SSW 12 15 - - - - 10 - - 22.9 1014.9 0.0
01/10:00pm SSW 13 16 - - - - 10 - - 23.3 1014.9 0.0

Other formats

Comma delimited format used in spreadsheet applications
http://www.bom.gov.au/fwo/IDW60701/IDW60701.94302.axf

JavaScript Object Notation format (JSON) in row-major order
http://www.bom.gov.au/fwo/IDW60701/IDW60701.94302.json

Data quality

Most of these data are generated automatically and are frequently updated. Quality checks on data are not normally performed. It is possible for incorrect values to appear. Refer to information at About Latest Weather Observations and please check the disclaimer before using these data.